sensor_id;sensor_type;location;lat;lon;timestamp;P1;durP1;ratioP1;P2;durP2;ratioP2
73693;SDS011;61997;53.974;11.670;2023-11-21T00:01:25;2.53;;;1.90;;
73693;SDS011;61997;53.974;11.670;2023-11-21T00:03:50;3.80;;;2.25;;
73693;SDS011;61997;53.974;11.670;2023-11-21T00:06:16;3.33;;;2.25;;
73693;SDS011;61997;53.974;11.670;2023-11-21T00:08:41;3.42;;;1.90;;
73693;SDS011;61997;53.974;11.670;2023-11-21T00:11:06;3.55;;;2.20;;
73693;SDS011;61997;53.974;11.670;2023-11-21T00:13:32;3.92;;;2.20;;
73693;SDS011;61997;53.974;11.670;2023-11-21T00:15:58;2.75;;;2.10;;
73693;SDS011;61997;53.974;11.670;2023-11-21T00:18:23;3.13;;;1.73;;
73693;SDS011;61997;53.974;11.670;2023-11-21T00:20:49;4.10;;;1.88;;
73693;SDS011;61997;53.974;11.670;2023-11-21T00:23:14;5.55;;;2.20;;
73693;SDS011;61997;53.974;11.670;2023-11-21T00:25:39;3.35;;;2.25;;
73693;SDS011;61997;53.974;11.670;2023-11-21T00:28:05;3.88;;;2.30;;
73693;SDS011;61997;53.974;11.670;2023-11-21T00:30:31;3.55;;;1.80;;
73693;SDS011;61997;53.974;11.670;2023-11-21T00:32:56;3.45;;;2.10;;
73693;SDS011;61997;53.974;11.670;2023-11-21T00:35:22;5.00;;;2.08;;
73693;SDS011;61997;53.974;11.670;2023-11-21T00:37:47;3.42;;;2.10;;
73693;SDS011;61997;53.974;11.670;2023-11-21T00:40:14;3.80;;;2.45;;
73693;SDS011;61997;53.974;11.670;2023-11-21T00:42:40;4.10;;;2.42;;
73693;SDS011;61997;53.974;11.670;2023-11-21T00:45:06;4.43;;;2.17;;
73693;SDS011;61997;53.974;11.670;2023-11-21T00:47:32;3.55;;;1.98;;
73693;SDS011;61997;53.974;11.670;2023-11-21T00:49:57;4.78;;;2.35;;
73693;SDS011;61997;53.974;11.670;2023-11-21T00:52:23;3.40;;;2.33;;
73693;SDS011;61997;53.974;11.670;2023-11-21T00:54:48;3.60;;;2.20;;
73693;SDS011;61997;53.974;11.670;2023-11-21T00:57:14;5.63;;;2.40;;
73693;SDS011;61997;53.974;11.670;2023-11-21T00:59:40;4.22;;;2.15;;
73693;SDS011;61997;53.974;11.670;2023-11-21T01:02:05;3.50;;;2.50;;
73693;SDS011;61997;53.974;11.670;2023-11-21T01:04:30;3.47;;;2.13;;
73693;SDS011;61997;53.974;11.670;2023-11-21T01:06:57;3.85;;;2.22;;
73693;SDS011;61997;53.974;11.670;2023-11-21T01:09:23;4.20;;;2.70;;
73693;SDS011;61997;53.974;11.670;2023-11-21T01:11:49;3.78;;;2.08;;
73693;SDS011;61997;53.974;11.670;2023-11-21T01:14:14;4.30;;;2.35;;
73693;SDS011;61997;53.974;11.670;2023-11-21T01:16:39;4.40;;;2.65;;
73693;SDS011;61997;53.974;11.670;2023-11-21T01:19:05;3.88;;;2.25;;
73693;SDS011;61997;53.974;11.670;2023-11-21T01:21:30;4.90;;;2.47;;
73693;SDS011;61997;53.974;11.670;2023-11-21T01:23:56;3.47;;;2.00;;
73693;SDS011;61997;53.974;11.670;2023-11-21T01:26:21;4.57;;;2.40;;
73693;SDS011;61997;53.974;11.670;2023-11-21T01:28:47;3.65;;;2.15;;
73693;SDS011;61997;53.974;11.670;2023-11-21T01:31:14;4.47;;;2.40;;
73693;SDS011;61997;53.974;11.670;2023-11-21T01:33:40;4.60;;;2.35;;
73693;SDS011;61997;53.974;11.670;2023-11-21T01:36:05;3.78;;;2.35;;
73693;SDS011;61997;53.974;11.670;2023-11-21T01:38:31;3.40;;;2.30;;
73693;SDS011;61997;53.974;11.670;2023-11-21T01:40:57;4.28;;;2.35;;
73693;SDS011;61997;53.974;11.670;2023-11-21T01:43:22;3.83;;;2.13;;
73693;SDS011;61997;53.974;11.670;2023-11-21T01:45:48;4.28;;;2.40;;
73693;SDS011;61997;53.974;11.670;2023-11-21T01:48:13;4.53;;;2.17;;
73693;SDS011;61997;53.974;11.670;2023-11-21T01:50:39;4.88;;;2.78;;
73693;SDS011;61997;53.974;11.670;2023-11-21T01:53:04;3.95;;;2.20;;
73693;SDS011;61997;53.974;11.670;2023-11-21T01:55:31;3.55;;;2.05;;
73693;SDS011;61997;53.974;11.670;2023-11-21T01:57:58;4.65;;;2.50;;
73693;SDS011;61997;53.974;11.670;2023-11-21T02:00:24;5.10;;;2.22;;
73693;SDS011;61997;53.974;11.670;2023-11-21T02:02:51;5.45;;;2.50;;
73693;SDS011;61997;53.974;11.670;2023-11-21T02:05:16;6.00;;;2.80;;
73693;SDS011;61997;53.974;11.670;2023-11-21T02:07:46;3.45;;;2.08;;
73693;SDS011;61997;53.974;11.670;2023-11-21T02:10:13;4.30;;;2.45;;
73693;SDS011;61997;53.974;11.670;2023-11-21T02:12:43;3.83;;;2.10;;
73693;SDS011;61997;53.974;11.670;2023-11-21T02:15:12;3.35;;;2.10;;
73693;SDS011;61997;53.974;11.670;2023-11-21T02:17:51;3.65;;;2.13;;
73693;SDS011;61997;53.974;11.670;2023-11-21T02:20:18;3.78;;;2.20;;
73693;SDS011;61997;53.974;11.670;2023-11-21T02:22:51;3.80;;;2.45;;
73693;SDS011;61997;53.974;11.670;2023-11-21T02:25:32;3.63;;;2.58;;
73693;SDS011;61997;53.974;11.670;2023-11-21T02:30:27;4.13;;;2.40;;
73693;SDS011;61997;53.974;11.670;2023-11-21T02:32:53;4.07;;;2.40;;
73693;SDS011;61997;53.974;11.670;2023-11-21T02:35:19;5.25;;;2.67;;
73693;SDS011;61997;53.974;11.670;2023-11-21T02:37:48;4.18;;;2.00;;
73693;SDS011;61997;53.974;11.670;2023-11-21T02:40:14;4.20;;;2.10;;
73693;SDS011;61997;53.974;11.670;2023-11-21T02:42:45;4.57;;;2.30;;
73693;SDS011;61997;53.974;11.670;2023-11-21T02:45:12;5.47;;;2.88;;
73693;SDS011;61997;53.974;11.670;2023-11-21T02:47:45;4.07;;;2.70;;
73693;SDS011;61997;53.974;11.670;2023-11-21T02:50:11;3.45;;;2.47;;
73693;SDS011;61997;53.974;11.670;2023-11-21T02:52:36;3.95;;;2.25;;
73693;SDS011;61997;53.974;11.670;2023-11-21T02:55:02;5.25;;;2.30;;
73693;SDS011;61997;53.974;11.670;2023-11-21T02:57:28;4.18;;;2.15;;
73693;SDS011;61997;53.974;11.670;2023-11-21T02:59:55;4.63;;;2.13;;
73693;SDS011;61997;53.974;11.670;2023-11-21T03:02:20;4.05;;;2.47;;
73693;SDS011;61997;53.974;11.670;2023-11-21T03:04:47;4.45;;;2.10;;
73693;SDS011;61997;53.974;11.670;2023-11-21T03:07:14;4.80;;;2.70;;
73693;SDS011;61997;53.974;11.670;2023-11-21T03:09:45;4.07;;;2.58;;
73693;SDS011;61997;53.974;11.670;2023-11-21T03:12:10;4.47;;;2.63;;
73693;SDS011;61997;53.974;11.670;2023-11-21T03:14:37;3.88;;;2.30;;
73693;SDS011;61997;53.974;11.670;2023-11-21T03:17:03;4.03;;;2.10;;
73693;SDS011;61997;53.974;11.670;2023-11-21T03:19:30;3.60;;;2.33;;
73693;SDS011;61997;53.974;11.670;2023-11-21T03:21:55;3.95;;;2.75;;
73693;SDS011;61997;53.974;11.670;2023-11-21T03:24:22;4.97;;;2.63;;
73693;SDS011;61997;53.974;11.670;2023-11-21T03:26:50;4.20;;;2.30;;
73693;SDS011;61997;53.974;11.670;2023-11-21T03:29:16;3.65;;;2.17;;
73693;SDS011;61997;53.974;11.670;2023-11-21T03:31:41;4.13;;;2.40;;
73693;SDS011;61997;53.974;11.670;2023-11-21T03:34:09;4.63;;;2.40;;
73693;SDS011;61997;53.974;11.670;2023-11-21T03:36:40;4.35;;;2.45;;
73693;SDS011;61997;53.974;11.670;2023-11-21T03:39:05;4.68;;;2.30;;
73693;SDS011;61997;53.974;11.670;2023-11-21T03:41:31;5.00;;;2.50;;
73693;SDS011;61997;53.974;11.670;2023-11-21T03:43:56;3.80;;;2.30;;
73693;SDS011;61997;53.974;11.670;2023-11-21T03:46:22;4.00;;;2.35;;
73693;SDS011;61997;53.974;11.670;2023-11-21T03:48:47;3.97;;;2.22;;
73693;SDS011;61997;53.974;11.670;2023-11-21T03:51:13;2.72;;;2.15;;
73693;SDS011;61997;53.974;11.670;2023-11-21T03:53:38;4.30;;;2.40;;
73693;SDS011;61997;53.974;11.670;2023-11-21T03:56:03;4.68;;;2.03;;
73693;SDS011;61997;53.974;11.670;2023-11-21T03:58:29;4.68;;;2.58;;
73693;SDS011;61997;53.974;11.670;2023-11-21T04:00:55;4.68;;;2.42;;
73693;SDS011;61997;53.974;11.670;2023-11-21T04:03:20;3.17;;;2.25;;
73693;SDS011;61997;53.974;11.670;2023-11-21T04:05:45;3.72;;;2.10;;
73693;SDS011;61997;53.974;11.670;2023-11-21T04:08:12;4.70;;;2.75;;
73693;SDS011;61997;53.974;11.670;2023-11-21T04:10:37;2.85;;;2.10;;
73693;SDS011;61997;53.974;11.670;2023-11-21T04:13:04;3.67;;;2.35;;
73693;SDS011;61997;53.974;11.670;2023-11-21T04:15:31;3.35;;;1.92;;
73693;SDS011;61997;53.974;11.670;2023-11-21T04:17:57;3.47;;;2.28;;
73693;SDS011;61997;53.974;11.670;2023-11-21T04:20:22;3.90;;;2.20;;
73693;SDS011;61997;53.974;11.670;2023-11-21T04:22:48;4.32;;;2.50;;
73693;SDS011;61997;53.974;11.670;2023-11-21T04:25:14;4.57;;;2.72;;
73693;SDS011;61997;53.974;11.670;2023-11-21T04:27:40;2.83;;;1.75;;
73693;SDS011;61997;53.974;11.670;2023-11-21T04:30:08;3.28;;;1.90;;
73693;SDS011;61997;53.974;11.670;2023-11-21T04:32:35;4.78;;;2.30;;
73693;SDS011;61997;53.974;11.670;2023-11-21T04:35:00;3.38;;;2.30;;
73693;SDS011;61997;53.974;11.670;2023-11-21T04:37:25;5.35;;;2.50;;
73693;SDS011;61997;53.974;11.670;2023-11-21T04:39:51;3.95;;;2.15;;
73693;SDS011;61997;53.974;11.670;2023-11-21T04:42:17;3.33;;;2.28;;
73693;SDS011;61997;53.974;11.670;2023-11-21T04:44:42;3.25;;;2.05;;
73693;SDS011;61997;53.974;11.670;2023-11-21T04:47:09;3.22;;;2.03;;
73693;SDS011;61997;53.974;11.670;2023-11-21T04:49:34;3.00;;;1.83;;
73693;SDS011;61997;53.974;11.670;2023-11-21T04:51:59;4.20;;;2.40;;
73693;SDS011;61997;53.974;11.670;2023-11-21T04:54:26;3.65;;;2.35;;
73693;SDS011;61997;53.974;11.670;2023-11-21T04:56:51;3.20;;;2.22;;
73693;SDS011;61997;53.974;11.670;2023-11-21T04:59:17;4.57;;;2.88;;
73693;SDS011;61997;53.974;11.670;2023-11-21T05:01:42;3.08;;;2.00;;
73693;SDS011;61997;53.974;11.670;2023-11-21T05:04:07;4.57;;;2.30;;
73693;SDS011;61997;53.974;11.670;2023-11-21T05:06:33;4.07;;;2.40;;
73693;SDS011;61997;53.974;11.670;2023-11-21T05:08:59;3.42;;;2.38;;
73693;SDS011;61997;53.974;11.670;2023-11-21T05:11:25;4.13;;;2.22;;
73693;SDS011;61997;53.974;11.670;2023-11-21T05:13:50;4.00;;;2.42;;
73693;SDS011;61997;53.974;11.670;2023-11-21T05:16:16;3.63;;;2.00;;
73693;SDS011;61997;53.974;11.670;2023-11-21T05:18:41;3.58;;;2.10;;
73693;SDS011;61997;53.974;11.670;2023-11-21T05:21:07;3.28;;;2.33;;
73693;SDS011;61997;53.974;11.670;2023-11-21T05:23:32;3.80;;;2.05;;
73693;SDS011;61997;53.974;11.670;2023-11-21T05:25:59;3.33;;;2.03;;
73693;SDS011;61997;53.974;11.670;2023-11-21T05:28:24;3.38;;;2.10;;
73693;SDS011;61997;53.974;11.670;2023-11-21T05:30:50;2.85;;;2.08;;
73693;SDS011;61997;53.974;11.670;2023-11-21T05:33:15;3.45;;;1.90;;
73693;SDS011;61997;53.974;11.670;2023-11-21T05:35:41;4.60;;;2.20;;
73693;SDS011;61997;53.974;11.670;2023-11-21T05:38:06;3.17;;;2.20;;
73693;SDS011;61997;53.974;11.670;2023-11-21T05:40:32;4.18;;;2.63;;
73693;SDS011;61997;53.974;11.670;2023-11-21T05:42:58;3.83;;;2.13;;
73693;SDS011;61997;53.974;11.670;2023-11-21T05:45:23;2.90;;;2.03;;
73693;SDS011;61997;53.974;11.670;2023-11-21T05:47:48;3.22;;;2.15;;
73693;SDS011;61997;53.974;11.670;2023-11-21T05:50:15;2.75;;;2.08;;
73693;SDS011;61997;53.974;11.670;2023-11-21T05:52:41;4.53;;;2.22;;
73693;SDS011;61997;53.974;11.670;2023-11-21T05:55:08;3.35;;;2.15;;
73693;SDS011;61997;53.974;11.670;2023-11-21T05:57:37;3.67;;;2.08;;
73693;SDS011;61997;53.974;11.670;2023-11-21T06:00:07;2.78;;;1.80;;
73693;SDS011;61997;53.974;11.670;2023-11-21T06:02:37;2.92;;;1.63;;
73693;SDS011;61997;53.974;11.670;2023-11-21T06:05:03;3.70;;;1.92;;
73693;SDS011;61997;53.974;11.670;2023-11-21T06:07:29;3.17;;;1.80;;
73693;SDS011;61997;53.974;11.670;2023-11-21T06:09:54;3.30;;;2.10;;
73693;SDS011;61997;53.974;11.670;2023-11-21T06:12:20;3.28;;;2.17;;
73693;SDS011;61997;53.974;11.670;2023-11-21T06:14:45;3.28;;;2.10;;
73693;SDS011;61997;53.974;11.670;2023-11-21T06:17:11;3.08;;;2.10;;
73693;SDS011;61997;53.974;11.670;2023-11-21T06:19:36;3.05;;;1.98;;
73693;SDS011;61997;53.974;11.670;2023-11-21T06:22:01;2.90;;;2.15;;
73693;SDS011;61997;53.974;11.670;2023-11-21T06:24:27;2.13;;;1.60;;
73693;SDS011;61997;53.974;11.670;2023-11-21T06:26:53;3.25;;;2.22;;
73693;SDS011;61997;53.974;11.670;2023-11-21T06:29:18;3.92;;;1.80;;
73693;SDS011;61997;53.974;11.670;2023-11-21T06:31:43;3.42;;;1.98;;
73693;SDS011;61997;53.974;11.670;2023-11-21T06:34:09;4.18;;;2.50;;
73693;SDS011;61997;53.974;11.670;2023-11-21T06:36:35;2.80;;;1.50;;
73693;SDS011;61997;53.974;11.670;2023-11-21T06:39:01;2.70;;;1.75;;
73693;SDS011;61997;53.974;11.670;2023-11-21T06:41:27;3.65;;;2.17;;
73693;SDS011;61997;53.974;11.670;2023-11-21T06:43:52;2.35;;;1.70;;
73693;SDS011;61997;53.974;11.670;2023-11-21T06:46:18;2.70;;;1.73;;
73693;SDS011;61997;53.974;11.670;2023-11-21T06:48:44;3.30;;;2.10;;
73693;SDS011;61997;53.974;11.670;2023-11-21T06:51:10;3.17;;;1.98;;
73693;SDS011;61997;53.974;11.670;2023-11-21T06:53:36;2.78;;;1.95;;
73693;SDS011;61997;53.974;11.670;2023-11-21T06:56:02;2.63;;;1.98;;
73693;SDS011;61997;53.974;11.670;2023-11-21T06:58:28;2.72;;;1.70;;
73693;SDS011;61997;53.974;11.670;2023-11-21T07:00:53;2.40;;;1.83;;
73693;SDS011;61997;53.974;11.670;2023-11-21T07:03:19;3.58;;;1.83;;
73693;SDS011;61997;53.974;11.670;2023-11-21T07:05:45;2.40;;;1.90;;
73693;SDS011;61997;53.974;11.670;2023-11-21T07:08:10;3.63;;;1.70;;
73693;SDS011;61997;53.974;11.670;2023-11-21T07:10:37;3.08;;;2.15;;
73693;SDS011;61997;53.974;11.670;2023-11-21T07:13:03;3.85;;;1.77;;
73693;SDS011;61997;53.974;11.670;2023-11-21T07:15:29;5.05;;;1.80;;
73693;SDS011;61997;53.974;11.670;2023-11-21T07:17:55;4.07;;;2.30;;
73693;SDS011;61997;53.974;11.670;2023-11-21T07:20:21;3.13;;;1.80;;
73693;SDS011;61997;53.974;11.670;2023-11-21T07:22:46;2.40;;;1.48;;
73693;SDS011;61997;53.974;11.670;2023-11-21T07:25:12;3.45;;;1.90;;
73693;SDS011;61997;53.974;11.670;2023-11-21T07:27:37;2.97;;;2.00;;
73693;SDS011;61997;53.974;11.670;2023-11-21T07:30:03;2.83;;;2.00;;
73693;SDS011;61997;53.974;11.670;2023-11-21T07:32:31;4.13;;;2.10;;
73693;SDS011;61997;53.974;11.670;2023-11-21T07:34:56;3.03;;;1.60;;
73693;SDS011;61997;53.974;11.670;2023-11-21T07:37:24;2.88;;;1.80;;
73693;SDS011;61997;53.974;11.670;2023-11-21T07:39:53;4.40;;;1.92;;
73693;SDS011;61997;53.974;11.670;2023-11-21T07:42:21;3.67;;;2.00;;
73693;SDS011;61997;53.974;11.670;2023-11-21T07:44:49;3.42;;;1.95;;
73693;SDS011;61997;53.974;11.670;2023-11-21T07:47:15;2.50;;;1.50;;
73693;SDS011;61997;53.974;11.670;2023-11-21T07:49:41;2.42;;;1.40;;
73693;SDS011;61997;53.974;11.670;2023-11-21T07:52:09;3.78;;;1.98;;
73693;SDS011;61997;53.974;11.670;2023-11-21T07:54:35;3.20;;;1.92;;
73693;SDS011;61997;53.974;11.670;2023-11-21T07:57:00;2.42;;;1.40;;
73693;SDS011;61997;53.974;11.670;2023-11-21T07:59:26;3.47;;;2.15;;
73693;SDS011;61997;53.974;11.670;2023-11-21T08:01:52;2.88;;;1.70;;
73693;SDS011;61997;53.974;11.670;2023-11-21T08:04:17;3.17;;;1.80;;
73693;SDS011;61997;53.974;11.670;2023-11-21T08:06:43;3.50;;;1.63;;
73693;SDS011;61997;53.974;11.670;2023-11-21T08:09:09;3.65;;;1.48;;
73693;SDS011;61997;53.974;11.670;2023-11-21T08:11:35;3.35;;;1.48;;
73693;SDS011;61997;53.974;11.670;2023-11-21T08:14:00;3.28;;;1.83;;
73693;SDS011;61997;53.974;11.670;2023-11-21T08:16:32;3.10;;;1.90;;
73693;SDS011;61997;53.974;11.670;2023-11-21T08:18:57;2.22;;;1.48;;
73693;SDS011;61997;53.974;11.670;2023-11-21T08:21:23;2.60;;;1.65;;
73693;SDS011;61997;53.974;11.670;2023-11-21T08:23:50;2.80;;;1.60;;
73693;SDS011;61997;53.974;11.670;2023-11-21T08:26:23;2.53;;;1.90;;
73693;SDS011;61997;53.974;11.670;2023-11-21T08:28:48;2.72;;;1.50;;
73693;SDS011;61997;53.974;11.670;2023-11-21T08:31:14;3.50;;;1.73;;
73693;SDS011;61997;53.974;11.670;2023-11-21T08:33:40;2.13;;;1.35;;
73693;SDS011;61997;53.974;11.670;2023-11-21T08:36:06;3.03;;;1.70;;
73693;SDS011;61997;53.974;11.670;2023-11-21T08:38:33;3.60;;;1.80;;
73693;SDS011;61997;53.974;11.670;2023-11-21T08:41:02;3.45;;;2.15;;
73693;SDS011;61997;53.974;11.670;2023-11-21T08:43:33;4.70;;;1.58;;
73693;SDS011;61997;53.974;11.670;2023-11-21T08:45:59;2.40;;;1.50;;
73693;SDS011;61997;53.974;11.670;2023-11-21T08:48:25;2.10;;;1.42;;
73693;SDS011;61997;53.974;11.670;2023-11-21T08:50:50;2.92;;;1.60;;
73693;SDS011;61997;53.974;11.670;2023-11-21T08:53:16;2.25;;;1.58;;
73693;SDS011;61997;53.974;11.670;2023-11-21T08:55:41;3.30;;;1.40;;
73693;SDS011;61997;53.974;11.670;2023-11-21T08:58:09;3.47;;;1.58;;
73693;SDS011;61997;53.974;11.670;2023-11-21T09:00:34;2.45;;;1.52;;
73693;SDS011;61997;53.974;11.670;2023-11-21T09:03:01;2.35;;;1.73;;
73693;SDS011;61997;53.974;11.670;2023-11-21T09:05:27;2.40;;;1.48;;
73693;SDS011;61997;53.974;11.670;2023-11-21T09:07:52;2.35;;;1.75;;
73693;SDS011;61997;53.974;11.670;2023-11-21T09:10:18;2.42;;;1.55;;
73693;SDS011;61997;53.974;11.670;2023-11-21T09:12:44;2.40;;;1.55;;
73693;SDS011;61997;53.974;11.670;2023-11-21T09:15:09;2.20;;;1.65;;
73693;SDS011;61997;53.974;11.670;2023-11-21T09:17:36;2.67;;;1.42;;
73693;SDS011;61997;53.974;11.670;2023-11-21T09:20:02;2.38;;;1.33;;
73693;SDS011;61997;53.974;11.670;2023-11-21T09:22:30;2.70;;;1.80;;
73693;SDS011;61997;53.974;11.670;2023-11-21T09:24:56;4.05;;;2.15;;
73693;SDS011;61997;53.974;11.670;2023-11-21T09:27:22;2.10;;;1.45;;
73693;SDS011;61997;53.974;11.670;2023-11-21T09:29:48;3.17;;;1.60;;
73693;SDS011;61997;53.974;11.670;2023-11-21T09:32:14;2.92;;;1.60;;
73693;SDS011;61997;53.974;11.670;2023-11-21T09:34:43;3.88;;;1.83;;
73693;SDS011;61997;53.974;11.670;2023-11-21T09:37:09;3.40;;;1.85;;
73693;SDS011;61997;53.974;11.670;2023-11-21T09:39:34;3.15;;;1.80;;
73693;SDS011;61997;53.974;11.670;2023-11-21T09:45:32;2.78;;;1.75;;
73693;SDS011;61997;53.974;11.670;2023-11-21T09:48:02;3.25;;;1.98;;
73693;SDS011;61997;53.974;11.670;2023-11-21T09:50:31;4.55;;;1.88;;
73693;SDS011;61997;53.974;11.670;2023-11-21T09:55:52;3.40;;;2.20;;
73693;SDS011;61997;53.974;11.670;2023-11-21T09:58:19;2.55;;;1.60;;
73693;SDS011;61997;53.974;11.670;2023-11-21T10:00:52;2.67;;;1.85;;
73693;SDS011;61997;53.974;11.670;2023-11-21T10:03:19;3.17;;;1.92;;
73693;SDS011;61997;53.974;11.670;2023-11-21T10:05:46;3.42;;;1.85;;
73693;SDS011;61997;53.974;11.670;2023-11-21T10:08:15;3.17;;;2.08;;
73693;SDS011;61997;53.974;11.670;2023-11-21T10:10:44;2.15;;;1.63;;
73693;SDS011;61997;53.974;11.670;2023-11-21T10:13:11;3.38;;;2.67;;
73693;SDS011;61997;53.974;11.670;2023-11-21T10:15:37;2.85;;;1.77;;
73693;SDS011;61997;53.974;11.670;2023-11-21T10:18:03;3.17;;;2.15;;
73693;SDS011;61997;53.974;11.670;2023-11-21T10:20:31;2.70;;;1.45;;
73693;SDS011;61997;53.974;11.670;2023-11-21T10:22:58;4.38;;;1.88;;
73693;SDS011;61997;53.974;11.670;2023-11-21T10:25:24;3.20;;;1.63;;
73693;SDS011;61997;53.974;11.670;2023-11-21T10:27:50;4.20;;;2.00;;
73693;SDS011;61997;53.974;11.670;2023-11-21T10:33:02;2.95;;;1.85;;
73693;SDS011;61997;53.974;11.670;2023-11-21T10:35:46;3.58;;;1.90;;
73693;SDS011;61997;53.974;11.670;2023-11-21T10:38:18;2.85;;;1.70;;
73693;SDS011;61997;53.974;11.670;2023-11-21T10:40:46;2.75;;;1.67;;
73693;SDS011;61997;53.974;11.670;2023-11-21T10:43:13;2.72;;;1.65;;
73693;SDS011;61997;53.974;11.670;2023-11-21T10:45:40;3.10;;;1.80;;
73693;SDS011;61997;53.974;11.670;2023-11-21T10:48:06;3.17;;;1.73;;
73693;SDS011;61997;53.974;11.670;2023-11-21T10:50:35;2.97;;;1.90;;
73693;SDS011;61997;53.974;11.670;2023-11-21T10:53:05;2.95;;;1.73;;
73693;SDS011;61997;53.974;11.670;2023-11-21T10:55:31;4.03;;;1.88;;
73693;SDS011;61997;53.974;11.670;2023-11-21T10:57:58;2.95;;;1.48;;
73693;SDS011;61997;53.974;11.670;2023-11-21T11:00:24;3.13;;;1.80;;
73693;SDS011;61997;53.974;11.670;2023-11-21T11:02:52;4.15;;;1.80;;
73693;SDS011;61997;53.974;11.670;2023-11-21T11:05:21;2.72;;;1.80;;
73693;SDS011;61997;53.974;11.670;2023-11-21T11:07:50;3.55;;;2.15;;
73693;SDS011;61997;53.974;11.670;2023-11-21T11:10:22;2.97;;;1.63;;
73693;SDS011;61997;53.974;11.670;2023-11-21T11:12:51;2.45;;;1.83;;
73693;SDS011;61997;53.974;11.670;2023-11-21T11:15:17;3.05;;;1.70;;
73693;SDS011;61997;53.974;11.670;2023-11-21T11:17:43;2.97;;;1.98;;
73693;SDS011;61997;53.974;11.670;2023-11-21T11:20:11;2.33;;;1.92;;
73693;SDS011;61997;53.974;11.670;2023-11-21T11:37:07;1.88;;;1.42;;
73693;SDS011;61997;53.974;11.670;2023-11-21T11:39:43;3.10;;;1.60;;
73693;SDS011;61997;53.974;11.670;2023-11-21T11:42:12;2.83;;;1.67;;
73693;SDS011;61997;53.974;11.670;2023-11-21T11:52:42;2.60;;;1.60;;
73693;SDS011;61997;53.974;11.670;2023-11-21T11:55:13;2.15;;;1.30;;
73693;SDS011;61997;53.974;11.670;2023-11-21T11:57:43;2.55;;;1.70;;
73693;SDS011;61997;53.974;11.670;2023-11-21T12:02:53;3.13;;;1.63;;
73693;SDS011;61997;53.974;11.670;2023-11-21T12:05:22;2.63;;;1.50;;
73693;SDS011;61997;53.974;11.670;2023-11-21T12:07:52;2.90;;;1.67;;
73693;SDS011;61997;53.974;11.670;2023-11-21T12:10:24;2.47;;;1.60;;
73693;SDS011;61997;53.974;11.670;2023-11-21T12:12:55;4.05;;;1.60;;
73693;SDS011;61997;53.974;11.670;2023-11-21T12:15:25;2.92;;;1.58;;
73693;SDS011;61997;53.974;11.670;2023-11-21T12:17:54;2.65;;;1.80;;
73693;SDS011;61997;53.974;11.670;2023-11-21T12:20:20;3.42;;;2.05;;
73693;SDS011;61997;53.974;11.670;2023-11-21T12:22:48;2.85;;;1.73;;
73693;SDS011;61997;53.974;11.670;2023-11-21T12:25:15;2.63;;;1.50;;
73693;SDS011;61997;53.974;11.670;2023-11-21T12:27:46;2.38;;;1.50;;
73693;SDS011;61997;53.974;11.670;2023-11-21T12:30:12;3.63;;;2.00;;
73693;SDS011;61997;53.974;11.670;2023-11-21T12:32:42;2.28;;;1.48;;
73693;SDS011;61997;53.974;11.670;2023-11-21T12:35:09;3.88;;;1.90;;
73693;SDS011;61997;53.974;11.670;2023-11-21T12:37:36;2.20;;;1.60;;
73693;SDS011;61997;53.974;11.670;2023-11-21T12:40:03;3.40;;;1.63;;
73693;SDS011;61997;53.974;11.670;2023-11-21T12:42:34;3.63;;;1.80;;
73693;SDS011;61997;53.974;11.670;2023-11-21T12:45:10;2.67;;;1.65;;
73693;SDS011;61997;53.974;11.670;2023-11-21T12:47:43;2.65;;;1.88;;
73693;SDS011;61997;53.974;11.670;2023-11-21T12:50:09;3.22;;;1.70;;
73693;SDS011;61997;53.974;11.670;2023-11-21T12:52:46;2.70;;;1.80;;
73693;SDS011;61997;53.974;11.670;2023-11-21T12:55:18;3.33;;;2.00;;
73693;SDS011;61997;53.974;11.670;2023-11-21T12:57:47;2.58;;;1.85;;
73693;SDS011;61997;53.974;11.670;2023-11-21T13:00:15;2.92;;;2.08;;
73693;SDS011;61997;53.974;11.670;2023-11-21T13:02:55;3.03;;;1.60;;
73693;SDS011;61997;53.974;11.670;2023-11-21T13:05:28;3.00;;;1.80;;
73693;SDS011;61997;53.974;11.670;2023-11-21T13:07:59;3.95;;;2.10;;
73693;SDS011;61997;53.974;11.670;2023-11-21T13:10:28;2.90;;;1.63;;
73693;SDS011;61997;53.974;11.670;2023-11-21T13:12:58;2.85;;;1.55;;
73693;SDS011;61997;53.974;11.670;2023-11-21T13:15:24;2.35;;;1.40;;
73693;SDS011;61997;53.974;11.670;2023-11-21T13:17:50;2.63;;;1.80;;
73693;SDS011;61997;53.974;11.670;2023-11-21T13:20:18;2.38;;;1.65;;
73693;SDS011;61997;53.974;11.670;2023-11-21T13:22:57;2.67;;;1.70;;
73693;SDS011;61997;53.974;11.670;2023-11-21T13:25:24;2.67;;;1.75;;
73693;SDS011;61997;53.974;11.670;2023-11-21T13:27:55;3.15;;;1.73;;
73693;SDS011;61997;53.974;11.670;2023-11-21T13:32:52;3.50;;;1.60;;
73693;SDS011;61997;53.974;11.670;2023-11-21T13:35:27;3.55;;;1.60;;
73693;SDS011;61997;53.974;11.670;2023-11-21T13:38:08;2.67;;;1.45;;
73693;SDS011;61997;53.974;11.670;2023-11-21T13:40:35;3.22;;;1.55;;
73693;SDS011;61997;53.974;11.670;2023-11-21T13:43:17;2.17;;;1.48;;
73693;SDS011;61997;53.974;11.670;2023-11-21T13:45:46;2.55;;;1.38;;
73693;SDS011;61997;53.974;11.670;2023-11-21T13:48:12;2.90;;;1.70;;
73693;SDS011;61997;53.974;11.670;2023-11-21T13:50:50;1.77;;;1.35;;
73693;SDS011;61997;53.974;11.670;2023-11-21T13:53:35;2.05;;;1.20;;
73693;SDS011;61997;53.974;11.670;2023-11-21T13:56:03;3.00;;;1.55;;
73693;SDS011;61997;53.974;11.670;2023-11-21T13:58:28;3.55;;;1.83;;
73693;SDS011;61997;53.974;11.670;2023-11-21T14:01:10;3.13;;;2.03;;
73693;SDS011;61997;53.974;11.670;2023-11-21T14:04:02;3.45;;;1.67;;
73693;SDS011;61997;53.974;11.670;2023-11-21T14:06:50;2.70;;;1.45;;
73693;SDS011;61997;53.974;11.670;2023-11-21T14:09:20;3.58;;;1.75;;
73693;SDS011;61997;53.974;11.670;2023-11-21T14:12:00;3.17;;;1.60;;
73693;SDS011;61997;53.974;11.670;2023-11-21T14:14:28;2.67;;;1.42;;
73693;SDS011;61997;53.974;11.670;2023-11-21T14:16:59;2.55;;;1.63;;
73693;SDS011;61997;53.974;11.670;2023-11-21T14:19:24;3.47;;;1.60;;
73693;SDS011;61997;53.974;11.670;2023-11-21T14:21:56;2.15;;;1.48;;
73693;SDS011;61997;53.974;11.670;2023-11-21T14:24:21;2.35;;;1.38;;
73693;SDS011;61997;53.974;11.670;2023-11-21T14:26:48;2.65;;;1.50;;
73693;SDS011;61997;53.974;11.670;2023-11-21T14:29:17;2.58;;;1.58;;
73693;SDS011;61997;53.974;11.670;2023-11-21T14:31:49;3.20;;;1.92;;
73693;SDS011;61997;53.974;11.670;2023-11-21T14:34:21;3.30;;;1.80;;
73693;SDS011;61997;53.974;11.670;2023-11-21T14:36:47;3.75;;;1.58;;
73693;SDS011;61997;53.974;11.670;2023-11-21T14:39:14;2.10;;;1.52;;
73693;SDS011;61997;53.974;11.670;2023-11-21T14:41:51;2.88;;;1.50;;
73693;SDS011;61997;53.974;11.670;2023-11-21T14:44:19;2.35;;;1.60;;
73693;SDS011;61997;53.974;11.670;2023-11-21T14:46:46;2.63;;;1.58;;
73693;SDS011;61997;53.974;11.670;2023-11-21T14:51:48;2.65;;;1.80;;
73693;SDS011;61997;53.974;11.670;2023-11-21T14:54:28;3.45;;;1.70;;
73693;SDS011;61997;53.974;11.670;2023-11-21T14:57:11;2.38;;;1.67;;
73693;SDS011;61997;53.974;11.670;2023-11-21T14:59:47;2.67;;;1.83;;
73693;SDS011;61997;53.974;11.670;2023-11-21T15:02:22;2.85;;;1.27;;
73693;SDS011;61997;53.974;11.670;2023-11-21T15:05:08;3.22;;;1.73;;
73693;SDS011;61997;53.974;11.670;2023-11-21T15:07:40;3.08;;;1.52;;
73693;SDS011;61997;53.974;11.670;2023-11-21T15:10:06;2.67;;;1.58;;
73693;SDS011;61997;53.974;11.670;2023-11-21T15:12:36;2.50;;;1.30;;
73693;SDS011;61997;53.974;11.670;2023-11-21T15:15:03;3.13;;;2.03;;
73693;SDS011;61997;53.974;11.670;2023-11-21T15:17:35;3.00;;;1.30;;